createdAt,value
2022-08-18T00:02:07.641Z,101524.22
2022-08-18T00:04:48.739Z,101522.53
2022-08-18T00:07:18.563Z,101525.88
2022-08-18T00:09:47.771Z,101520.72
2022-08-18T00:12:17.207Z,101523.34
2022-08-18T00:14:45.498Z,101529.50
2022-08-18T00:17:15.184Z,101517.66
2022-08-18T00:19:46.471Z,101516.53
2022-08-18T00:22:17.726Z,101516.09
2022-08-18T00:24:48.415Z,101521.25
2022-08-18T00:27:17.256Z,101518.88
2022-08-18T00:29:45.085Z,101527.97
2022-08-18T00:32:15.189Z,101542.44
2022-08-18T00:34:42.936Z,101529.72
2022-08-18T00:37:10.612Z,101525.28
2022-08-18T00:39:40.655Z,101532.47
2022-08-18T00:42:28.879Z,101529.97
2022-08-18T00:45:03.030Z,101533.72
2022-08-18T00:47:41.122Z,101537.91
2022-08-18T00:50:13.542Z,101535.25
2022-08-18T00:52:43.741Z,101533.41
2022-08-18T00:55:11.662Z,101531.88
2022-08-18T00:57:39.846Z,101547.91
2022-08-18T01:00:11.569Z,101551.66
2022-08-18T01:02:41.426Z,101554.59
2022-08-18T01:05:12.627Z,101551.34
2022-08-18T01:07:43.988Z,101554.53
2022-08-18T01:10:15.712Z,101563.84
2022-08-18T01:12:45.949Z,101562.44
2022-08-18T01:15:28.747Z,101564.78
2022-08-18T01:18:17.684Z,101564.31
2022-08-18T01:21:18.325Z,101565.56
2022-08-18T01:23:48.705Z,101559.56
2022-08-18T01:26:16.880Z,101563.78
2022-08-18T01:28:46.414Z,101562.78
2022-08-18T01:31:29.498Z,101568.47
2022-08-18T01:33:57.278Z,101560.38
2022-08-18T01:36:24.957Z,101566.75
2022-08-18T01:38:54.154Z,101568.81
2022-08-18T01:41:29.491Z,101562.81
2022-08-18T01:43:59.140Z,101562.81
2022-08-18T01:46:27.634Z,101565.59
2022-08-18T01:48:55.329Z,101561.28
2022-08-18T01:51:38.050Z,101560.56
2022-08-18T01:54:10.802Z,101564.19
2022-08-18T01:56:38.481Z,101559.53
2022-08-18T01:59:06.973Z,101569.41
2022-08-18T02:01:38.911Z,101557.03
2022-08-18T02:04:34.528Z,101560.19
2022-08-18T02:07:04.229Z,101559.81
2022-08-18T02:09:33.622Z,101557.28
2022-08-18T02:12:02.148Z,101554.31
2022-08-18T02:14:31.317Z,101561.00
2022-08-18T02:17:01.962Z,101558.22
2022-08-18T02:19:33.645Z,101557.66
2022-08-18T02:22:01.339Z,101568.38
2022-08-18T02:24:29.081Z,101562.09
2022-08-18T02:26:58.315Z,101561.38
2022-08-18T02:29:26.131Z,101555.38
2022-08-18T02:31:54.187Z,101544.94
2022-08-18T02:34:22.015Z,101550.47
2022-08-18T02:36:49.899Z,101553.13
2022-08-18T02:39:20.907Z,101549.38
2022-08-18T02:41:48.594Z,101553.69
2022-08-18T02:44:20.201Z,101553.00
2022-08-18T02:46:47.942Z,101552.25
2022-08-18T02:49:15.641Z,101554.19
2022-08-18T02:51:47.373Z,101552.78
2022-08-18T02:54:15.106Z,101559.41
2022-08-18T02:56:45.604Z,101551.28
2022-08-18T02:59:14.759Z,101553.34
2022-08-18T03:01:46.060Z,101565.97
2022-08-18T03:04:15.665Z,101568.53
2022-08-18T03:06:44.365Z,101567.09
2022-08-18T03:09:14.330Z,101565.19
2022-08-18T03:11:42.675Z,101571.16
2022-08-18T03:14:12.261Z,101573.81
2022-08-18T03:16:53.330Z,101574.53
2022-08-18T03:19:24.108Z,101568.66
2022-08-18T03:21:52.826Z,101566.13
2022-08-18T03:24:22.835Z,101576.38
2022-08-18T03:26:52.691Z,101571.22
2022-08-18T03:29:20.815Z,101574.69
2022-08-18T03:31:49.013Z,101573.72
2022-08-18T03:34:19.461Z,101582.34
2022-08-18T03:36:49.298Z,101585.97
2022-08-18T03:39:17.642Z,101593.88
2022-08-18T03:41:59.090Z,101601.81
2022-08-18T03:44:32.855Z,101612.06
2022-08-18T03:47:03.991Z,101612.81
2022-08-18T03:49:33.744Z,101606.06
2022-08-18T03:52:02.975Z,101614.44
2022-08-18T03:54:32.307Z,101610.34
2022-08-18T03:57:00.376Z,101614.03
2022-08-18T03:59:32.027Z,101619.78
2022-08-18T04:02:00.087Z,101620.38
2022-08-18T04:04:28.879Z,101621.94
2022-08-18T04:06:59.285Z,101624.84
2022-08-18T04:09:29.070Z,101628.91
2022-08-18T04:11:57.121Z,101635.47
2022-08-18T04:14:26.045Z,101636.19
2022-08-18T04:16:53.774Z,101634.84
2022-08-18T04:19:26.818Z,101636.28
2022-08-18T04:21:56.242Z,101651.75
2022-08-18T04:24:24.207Z,101648.63
2022-08-18T04:26:53.903Z,101650.78
2022-08-18T04:29:22.017Z,101653.19
2022-08-18T04:31:50.236Z,101651.25
2022-08-18T04:34:18.492Z,101659.78
2022-08-18T04:36:46.190Z,101661.19
2022-08-18T04:39:14.479Z,101662.75
2022-08-18T04:41:43.710Z,101660.31
2022-08-18T04:44:14.001Z,101663.28
2022-08-18T04:46:44.095Z,101665.41
2022-08-18T04:49:12.487Z,101666.59
2022-08-18T04:52:34.864Z,101670.38
2022-08-18T04:54:28.636Z,101669.00
2022-08-18T04:56:56.314Z,101675.03
2022-08-18T04:59:26.054Z,101672.13
2022-08-18T05:01:53.744Z,101680.66
2022-08-18T05:04:21.425Z,101690.00
2022-08-18T05:06:49.107Z,101679.03
2022-08-18T05:09:22.964Z,101688.84
2022-08-18T05:11:51.493Z,101687.47
2022-08-18T05:14:19.332Z,101696.00
2022-08-18T05:16:49.622Z,101687.56
2022-08-18T05:19:19.896Z,101689.81
2022-08-18T05:21:50.817Z,101689.53
2022-08-18T05:24:19.752Z,101697.09
2022-08-18T05:26:47.459Z,101693.31
2022-08-18T05:29:18.521Z,101694.03
2022-08-18T05:31:49.291Z,101701.59
2022-08-18T05:34:17.508Z,101711.63
2022-08-18T05:36:53.470Z,101702.34
2022-08-18T05:39:23.590Z,101708.78
2022-08-18T05:41:52.928Z,101707.50
2022-08-18T05:44:23.387Z,101704.19
2022-08-18T05:46:54.255Z,101719.97
2022-08-18T05:49:22.808Z,101729.91
2022-08-18T05:51:52.003Z,101729.75
2022-08-18T05:54:37.953Z,101737.44
2022-08-18T05:57:07.189Z,101740.94
2022-08-18T05:59:35.849Z,101734.25
2022-08-18T06:02:08.931Z,101739.28
2022-08-18T06:04:41.296Z,101745.03
2022-08-18T06:07:11.791Z,101745.19
2022-08-18T06:09:43.501Z,101746.38
2022-08-18T06:12:18.323Z,101749.44
2022-08-18T06:14:46.267Z,101761.34
2022-08-18T06:17:25.192Z,101766.63
2022-08-18T06:19:56.693Z,101770.81
2022-08-18T06:22:30.584Z,101764.25
2022-08-18T06:25:03.268Z,101777.25
2022-08-18T06:27:39.692Z,101761.06
2022-08-18T06:30:12.864Z,101763.28
2022-08-18T06:33:01.112Z,101753.25
2022-08-18T06:35:34.418Z,101759.69
2022-08-18T06:38:23.882Z,101754.94
2022-08-18T06:41:01.347Z,101765.28
2022-08-18T06:43:29.160Z,101768.75
2022-08-18T06:45:59.975Z,101764.00
2022-08-18T06:48:34.124Z,101767.09
2022-08-18T06:51:04.450Z,101766.69
2022-08-18T06:53:51.163Z,101758.28
2022-08-18T06:56:25.936Z,101748.78
2022-08-18T06:58:55.447Z,101752.53
2022-08-18T07:01:24.795Z,101757.28
2022-08-18T07:03:54.972Z,101756.75
2022-08-18T07:06:30.551Z,101761.63
2022-08-18T07:09:13.063Z,101763.31
2022-08-18T07:11:43.371Z,101756.56
2022-08-18T07:14:17.072Z,101759.34
2022-08-18T07:17:00.782Z,101754.88
2022-08-18T07:19:30.093Z,101750.09
2022-08-18T07:22:04.531Z,101761.28
2022-08-18T07:24:34.420Z,101759.72
2022-08-18T07:27:04.203Z,101764.47
2022-08-18T07:29:32.942Z,101761.81
2022-08-18T07:32:02.168Z,101763.63
2022-08-18T07:34:36.826Z,101768.78
2022-08-18T07:37:09.195Z,101763.19
2022-08-18T07:39:39.977Z,101758.13
2022-08-18T07:42:37.255Z,101759.66
2022-08-18T07:45:13.622Z,101755.16
2022-08-18T07:47:46.902Z,101757.63
2022-08-18T07:50:31.448Z,101756.88
2022-08-18T07:53:09.909Z,101759.97
2022-08-18T07:55:37.678Z,101756.78
2022-08-18T07:58:16.091Z,101766.94
2022-08-18T08:00:58.897Z,101779.63
2022-08-18T08:03:33.199Z,101777.03
2022-08-18T08:06:05.743Z,101773.00
2022-08-18T08:08:40.987Z,101773.41
2022-08-18T08:11:14.678Z,101772.22
2022-08-18T08:13:57.588Z,101761.84
2022-08-18T08:16:29.538Z,101762.91
2022-08-18T08:19:12.364Z,101770.75
2022-08-18T08:21:44.781Z,101761.47
2022-08-18T08:24:26.632Z,101765.09
2022-08-18T08:27:00.286Z,101759.59
2022-08-18T08:29:36.564Z,101757.09
2022-08-18T08:32:05.458Z,101759.22
2022-08-18T08:34:37.638Z,101765.91
2022-08-18T08:37:08.562Z,101764.75
2022-08-18T08:39:40.948Z,101767.66
2022-08-18T08:42:30.570Z,101771.91
2022-08-18T08:45:01.050Z,101777.47
2022-08-18T08:47:33.213Z,101770.28
2022-08-18T08:50:03.242Z,101765.81
2022-08-18T08:52:32.730Z,101769.31
2022-08-18T08:55:05.130Z,101767.53
2022-08-18T08:57:35.714Z,101765.56
2022-08-18T09:00:04.154Z,101762.44
2022-08-18T09:02:48.480Z,101769.44
2022-08-18T09:05:19.743Z,101774.16
2022-08-18T09:07:59.076Z,101767.88
2022-08-18T09:10:40.716Z,101768.53
2022-08-18T09:13:19.535Z,101764.25
2022-08-18T09:15:57.186Z,101763.53
2022-08-18T09:18:39.712Z,101759.25
2022-08-18T09:21:16.044Z,101755.75
2022-08-18T09:23:45.811Z,101745.59
2022-08-18T09:26:25.660Z,101749.25
2022-08-18T09:28:57.532Z,101747.91
2022-08-18T09:31:25.411Z,101736.06
2022-08-18T09:34:11.239Z,101737.94
2022-08-18T09:36:51.872Z,101734.34
2022-08-18T09:39:40.325Z,101731.84
2022-08-18T09:42:14.278Z,101733.56
2022-08-18T09:45:02.183Z,101737.91
2022-08-18T09:47:48.497Z,101733.09
2022-08-18T09:50:34.236Z,101726.59
2022-08-18T09:53:20.034Z,101724.06
2022-08-18T09:56:00.807Z,101727.91
2022-08-18T09:58:48.195Z,101727.66
2022-08-18T10:01:23.269Z,101730.16
2022-08-18T10:04:10.033Z,101734.16
2022-08-18T10:06:42.899Z,101731.31
2022-08-18T10:12:09.898Z,101719.31
2022-08-18T10:14:59.618Z,101719.84
2022-08-18T10:17:35.484Z,101723.00
2022-08-18T10:20:26.585Z,101720.66
2022-08-18T10:22:55.524Z,101716.97
2022-08-18T10:25:34.176Z,101721.66
2022-08-18T10:28:05.441Z,101718.00
2022-08-18T10:30:56.767Z,101718.16
2022-08-18T10:33:45.063Z,101712.97
2022-08-18T10:36:33.615Z,101714.69
2022-08-18T10:39:05.576Z,101720.16
2022-08-18T10:41:41.469Z,101718.47
2022-08-18T10:44:28.334Z,101717.63
2022-08-18T10:46:58.694Z,101717.09
2022-08-18T10:49:28.199Z,101712.88
2022-08-18T10:52:14.087Z,101716.59
2022-08-18T10:54:54.592Z,101717.53
2022-08-18T10:57:28.671Z,101718.00
2022-08-18T11:00:00.232Z,101710.31
2022-08-18T11:02:41.838Z,101704.44
2022-08-18T11:05:12.123Z,101691.34
2022-08-18T11:07:44.694Z,101680.00
2022-08-18T11:13:09.919Z,101677.34
2022-08-18T11:15:47.488Z,101668.97
2022-08-18T11:18:24.231Z,101667.78
2022-08-18T11:20:52.428Z,101661.25
2022-08-18T11:23:21.524Z,101668.88
2022-08-18T11:25:50.240Z,101669.47
2022-08-18T11:28:19.514Z,101673.72
2022-08-18T11:30:48.888Z,101668.84
2022-08-18T11:33:22.723Z,101679.06
2022-08-18T11:35:51.636Z,101676.09
2022-08-18T11:38:21.116Z,101679.13
2022-08-18T11:41:12.377Z,101679.13
2022-08-18T11:43:47.425Z,101677.78
2022-08-18T11:49:15.701Z,101684.38
2022-08-18T11:51:54.985Z,101682.53
2022-08-18T11:54:24.913Z,101688.72
2022-08-18T11:56:54.133Z,101681.53
2022-08-18T11:59:53.605Z,101685.16
2022-08-18T12:02:22.465Z,101670.63
2022-08-18T12:04:53.280Z,101671.50
2022-08-18T12:07:28.324Z,101667.38
2022-08-18T12:10:17.725Z,101664.75
2022-08-18T12:15:47.046Z,101663.09
2022-08-18T12:18:18.647Z,101660.22
2022-08-18T12:20:54.383Z,101649.50
2022-08-18T12:23:22.910Z,101652.09
2022-08-18T12:25:53.749Z,101645.63
2022-08-18T12:28:28.391Z,101653.31
2022-08-18T12:30:57.500Z,101648.34
2022-08-18T12:33:34.185Z,101645.97
2022-08-18T12:36:13.638Z,101646.16
2022-08-18T12:38:42.975Z,101653.53
2022-08-18T12:41:12.088Z,101647.25
2022-08-18T12:43:41.119Z,101652.50
2022-08-18T12:46:11.927Z,101652.06
2022-08-18T12:48:40.436Z,101652.16
2022-08-18T12:51:08.798Z,101643.94
2022-08-18T12:53:57.975Z,101639.66
2022-08-18T12:56:27.156Z,101637.66
2022-08-18T12:58:57.032Z,101642.47
2022-08-18T13:01:26.663Z,101636.47
2022-08-18T13:04:10.958Z,101635.34
2022-08-18T13:06:54.057Z,101642.09
2022-08-18T13:09:35.371Z,101633.41
2022-08-18T13:12:17.322Z,101626.72
2022-08-18T13:14:46.784Z,101631.78
2022-08-18T13:17:29.475Z,101636.69
2022-08-18T13:20:02.110Z,101636.53
2022-08-18T13:22:32.779Z,101631.78
2022-08-18T13:25:01.107Z,101628.09
2022-08-18T13:27:32.761Z,101626.22
2022-08-18T13:30:30.449Z,101637.16
2022-08-18T13:32:59.295Z,101634.28
2022-08-18T13:35:29.909Z,101632.47
2022-08-18T13:38:12.355Z,101627.84
2022-08-18T13:40:45.663Z,101625.25
2022-08-18T13:43:15.443Z,101623.31
2022-08-18T13:45:52.739Z,101623.31
2022-08-18T13:48:21.522Z,101622.88
2022-08-18T13:50:52.789Z,101627.28
2022-08-18T13:53:21.931Z,101623.97
2022-08-18T13:55:50.439Z,101632.84
2022-08-18T13:58:20.881Z,101631.00
2022-08-18T14:00:52.346Z,101623.41
2022-08-18T14:03:42.396Z,101627.19
2022-08-18T14:06:13.325Z,101619.91
2022-08-18T14:08:41.532Z,101620.25
2022-08-18T14:11:10.069Z,101634.06
2022-08-18T14:13:43.574Z,101623.00
2022-08-18T14:16:18.543Z,101615.69
2022-08-18T14:19:09.693Z,101624.28
2022-08-18T14:22:06.990Z,101617.56
2022-08-18T14:24:56.887Z,101610.25
2022-08-18T14:27:26.444Z,101612.28
2022-08-18T14:29:55.928Z,101616.53
2022-08-18T14:32:29.117Z,101616.78
2022-08-18T14:35:00.639Z,101603.44
2022-08-18T14:37:29.018Z,101606.22
2022-08-18T14:39:57.259Z,101610.47
2022-08-18T14:42:41.491Z,101604.09
2022-08-18T14:45:17.606Z,101591.78
2022-08-18T14:47:57.689Z,101586.97
2022-08-18T14:50:25.892Z,101597.41
2022-08-18T14:52:54.257Z,101604.28
2022-08-18T14:55:22.955Z,101606.97
2022-08-18T14:57:51.453Z,101606.34
2022-08-18T15:00:22.579Z,101597.63
2022-08-18T15:02:51.515Z,101611.22
2022-08-18T15:05:24.118Z,101609.91
2022-08-18T15:07:53.248Z,101623.66
2022-08-18T15:10:23.667Z,101620.97
2022-08-18T15:12:57.788Z,101619.31
2022-08-18T15:15:25.863Z,101616.28
2022-08-18T15:17:53.568Z,101612.09
2022-08-18T15:20:28.710Z,101615.13
2022-08-18T15:23:18.095Z,101604.13
2022-08-18T15:25:51.081Z,101603.47
2022-08-18T15:28:19.925Z,101606.31
2022-08-18T15:30:51.041Z,101608.88
2022-08-18T15:33:23.769Z,101606.09
2022-08-18T15:35:54.634Z,101612.09
2022-08-18T15:38:23.207Z,101617.81
2022-08-18T15:40:57.094Z,101619.72
2022-08-18T15:43:30.319Z,101618.25
2022-08-18T15:45:59.374Z,101629.31
2022-08-18T15:48:27.865Z,101632.00
2022-08-18T15:50:56.982Z,101633.88
2022-08-18T15:53:30.002Z,101625.88
2022-08-18T15:55:58.118Z,101617.91
2022-08-18T15:58:26.807Z,101624.56
2022-08-18T16:00:56.292Z,101626.09
2022-08-18T16:03:26.823Z,101626.75
2022-08-18T16:05:55.905Z,101614.56
2022-08-18T16:08:26.667Z,101614.41
2022-08-18T16:10:55.569Z,101617.75
2022-08-18T16:13:24.614Z,101615.59
2022-08-18T16:15:52.303Z,101625.63
2022-08-18T16:18:22.028Z,101626.31
2022-08-18T16:20:50.611Z,101634.81
2022-08-18T16:23:20.715Z,101628.16
2022-08-18T16:25:49.976Z,101627.50
2022-08-18T16:28:17.628Z,101624.31
2022-08-18T16:30:47.797Z,101624.78
2022-08-18T16:33:15.481Z,101632.09
2022-08-18T16:35:45.339Z,101620.63
2022-08-18T16:38:13.858Z,101621.25
2022-08-18T16:40:41.931Z,101616.25
2022-08-18T16:43:12.720Z,101619.41
2022-08-18T16:45:42.859Z,101617.22
2022-08-18T16:48:12.565Z,101616.25
2022-08-18T16:50:45.558Z,101620.56
2022-08-18T16:53:13.243Z,101627.56
2022-08-18T16:55:42.994Z,101630.72
2022-08-18T16:58:29.397Z,101635.84
2022-08-18T17:01:18.768Z,101635.22
2022-08-18T17:04:04.130Z,101634.69
2022-08-18T17:06:47.331Z,101645.28
2022-08-18T17:09:15.821Z,101646.41
2022-08-18T17:11:51.243Z,101642.19
2022-08-18T17:14:21.578Z,101649.66
2022-08-18T17:16:49.493Z,101647.50
2022-08-18T17:19:17.524Z,101655.81
2022-08-18T17:21:45.261Z,101657.72
2022-08-18T17:24:14.649Z,101655.53
2022-08-18T17:26:48.931Z,101659.34
2022-08-18T17:29:20.191Z,101654.97
2022-08-18T17:31:51.273Z,101661.59
2022-08-18T17:34:21.227Z,101663.66
2022-08-18T17:36:52.675Z,101660.59
2022-08-18T17:39:22.199Z,101659.75
2022-08-18T17:42:07.567Z,101661.84
2022-08-18T17:44:36.557Z,101663.31
2022-08-18T17:47:19.135Z,101679.03
2022-08-18T17:50:28.295Z,101678.69
2022-08-18T17:52:55.847Z,101688.09
2022-08-18T17:55:25.706Z,101692.22
2022-08-18T17:57:58.738Z,101687.06
2022-08-18T18:00:27.698Z,101701.88
2022-08-18T18:02:56.747Z,101703.19
2022-08-18T18:05:26.382Z,101696.50
2022-08-18T18:07:56.630Z,101682.09
2022-08-18T18:10:26.190Z,101689.19
2022-08-18T18:13:06.254Z,101690.78
2022-08-18T18:15:34.549Z,101698.38
2022-08-18T18:18:19.245Z,101703.19
2022-08-18T18:20:57.142Z,101698.97
2022-08-18T18:23:29.088Z,101701.94
2022-08-18T18:25:58.129Z,101707.84
2022-08-18T18:28:28.041Z,101703.97
2022-08-18T18:30:58.906Z,101697.41
2022-08-18T18:33:30.060Z,101690.47
2022-08-18T18:35:59.655Z,101687.69
2022-08-18T18:38:28.694Z,101683.97
2022-08-18T18:40:58.965Z,101685.41
2022-08-18T18:43:29.058Z,101684.28
2022-08-18T18:46:03.614Z,101677.75
2022-08-18T18:48:45.254Z,101666.72
2022-08-18T18:51:33.251Z,101664.38
2022-08-18T18:54:06.378Z,101658.09
2022-08-18T18:56:37.319Z,101661.47
2022-08-18T18:59:12.687Z,101657.88
2022-08-18T19:01:44.461Z,101667.66
2022-08-18T19:04:16.906Z,101662.63
2022-08-18T19:06:49.326Z,101665.84
2022-08-18T19:09:20.351Z,101674.53
2022-08-18T19:11:57.732Z,101682.22
2022-08-18T19:14:29.510Z,101681.66
2022-08-18T19:17:00.984Z,101694.22
2022-08-18T19:19:36.806Z,101703.19
2022-08-18T19:22:10.019Z,101704.84
2022-08-18T19:24:41.181Z,101708.06
2022-08-18T19:27:12.105Z,101713.94
2022-08-18T19:29:43.442Z,101703.31
2022-08-18T19:32:16.570Z,101705.13
2022-08-18T19:34:52.474Z,101701.91
2022-08-18T19:37:27.478Z,101707.94
2022-08-18T19:40:03.260Z,101707.78
2022-08-18T19:42:35.256Z,101700.13
2022-08-18T19:45:16.338Z,101698.56
2022-08-18T19:47:49.570Z,101697.72
2022-08-18T19:50:32.793Z,101675.06
2022-08-18T19:53:09.199Z,101687.94
2022-08-18T19:55:43.903Z,101680.25
2022-08-18T19:58:32.002Z,101688.81
2022-08-18T20:01:04.572Z,101695.09
2022-08-18T20:03:49.543Z,101690.06
2022-08-18T20:06:34.094Z,101687.69
2022-08-18T20:09:21.499Z,101682.25
2022-08-18T20:11:58.475Z,101680.28
2022-08-18T20:14:26.319Z,101665.34
2022-08-18T20:17:12.079Z,101672.19
2022-08-18T20:19:42.159Z,101664.50
2022-08-18T20:22:16.242Z,101666.16
2022-08-18T20:24:51.147Z,101672.75
2022-08-18T20:27:32.790Z,101669.09
2022-08-18T20:30:30.207Z,101675.28
2022-08-18T20:33:07.859Z,101671.22
2022-08-18T20:35:38.717Z,101670.66
2022-08-18T20:38:14.748Z,101667.88
2022-08-18T20:40:44.754Z,101671.22
2022-08-18T20:43:28.703Z,101672.19
2022-08-18T20:46:10.074Z,101672.19
2022-08-18T20:49:06.109Z,101670.38
2022-08-18T20:51:37.858Z,101671.38
2022-08-18T20:54:13.668Z,101664.66
2022-08-18T20:56:46.517Z,101664.25
2022-08-18T20:59:20.030Z,101669.00
2022-08-18T21:01:54.442Z,101672.22
2022-08-18T21:04:33.738Z,101666.22
2022-08-18T21:07:12.889Z,101668.16
2022-08-18T21:09:49.198Z,101676.97
2022-08-18T21:12:21.984Z,101682.41
2022-08-18T21:14:52.950Z,101677.94
2022-08-18T21:17:20.646Z,101676.13
2022-08-18T21:19:48.340Z,101677.09
2022-08-18T21:22:16.159Z,101670.81
2022-08-18T21:24:46.899Z,101663.56
2022-08-18T21:27:27.118Z,101663.41
2022-08-18T21:29:55.974Z,101665.06
2022-08-18T21:32:29.237Z,101662.56
2022-08-18T21:34:57.030Z,101666.06
2022-08-18T21:37:24.777Z,101658.94
2022-08-18T21:39:55.790Z,101655.16
2022-08-18T21:42:26.179Z,101651.53
2022-08-18T21:44:55.394Z,101648.88
2022-08-18T21:47:24.760Z,101647.19
2022-08-18T21:50:01.711Z,101645.69
2022-08-18T21:52:30.494Z,101647.34
2022-08-18T21:55:02.795Z,101654.16
2022-08-18T21:57:47.439Z,101647.91
2022-08-18T22:00:18.102Z,101650.00
2022-08-18T22:02:46.278Z,101649.00
2022-08-18T22:05:26.208Z,101646.06
2022-08-18T22:07:53.886Z,101641.03
2022-08-18T22:10:45.330Z,101645.09
2022-08-18T22:13:37.851Z,101639.78
2022-08-18T22:16:22.919Z,101638.25
2022-08-18T22:18:50.834Z,101633.50
2022-08-18T22:21:32.422Z,101628.03
2022-08-18T22:24:18.030Z,101621.75
2022-08-18T22:26:48.342Z,101618.13
2022-08-18T22:29:23.363Z,101613.91
2022-08-18T22:31:52.298Z,101606.94
2022-08-18T22:34:27.790Z,101599.13
2022-08-18T22:37:00.383Z,101605.00
2022-08-18T22:39:29.454Z,101603.00
2022-08-18T22:41:59.025Z,101607.50
2022-08-18T22:44:26.840Z,101612.53
2022-08-18T22:46:54.594Z,101607.91
2022-08-18T22:49:22.733Z,101604.28
2022-08-18T22:51:51.703Z,101607.75
2022-08-18T22:54:19.926Z,101604.28
2022-08-18T22:56:54.056Z,101596.16
2022-08-18T22:59:26.869Z,101599.13
2022-08-18T23:01:55.491Z,101595.47
2022-08-18T23:04:24.786Z,101586.22
2022-08-18T23:06:53.767Z,101591.66
2022-08-18T23:09:22.625Z,101584.56
2022-08-18T23:11:50.422Z,101584.56
2022-08-18T23:14:18.350Z,101575.06
2022-08-18T23:16:47.455Z,101575.88
2022-08-18T23:19:15.878Z,101577.72
2022-08-18T23:21:44.281Z,101580.53
2022-08-18T23:24:13.891Z,101573.09
2022-08-18T23:26:42.073Z,101574.06
2022-08-18T23:29:11.666Z,101567.25
2022-08-18T23:31:40.199Z,101566.25
2022-08-18T23:34:10.296Z,101570.56
2022-08-18T23:36:45.256Z,101563.44
2022-08-18T23:39:13.704Z,101560.66
2022-08-18T23:41:41.489Z,101553.69
2022-08-18T23:44:09.206Z,101558.69
2022-08-18T23:46:37.834Z,101561.50
2022-08-18T23:49:10.644Z,101559.66
2022-08-18T23:51:42.679Z,101556.84
2022-08-18T23:54:14.401Z,101555.06
2022-08-18T23:56:42.103Z,101561.22
2022-08-18T23:59:10.121Z,101551.41
